メインページ
METAR-TAF:

METAR-TAF

空港 :

アムステルダム・スキポール空港

アムステルダム, オランダ

緯度: 52-18N, 経度: 004-46E, 海抜: -4m

現時点の気象観測

当レポートは23分前の05:25(UTC)に作成
の風 8kt
気温 5°C
湿度 100%
気圧 1033 hPa
視程: 2400m
高度1700ftの雲はほとんどない

METAR: EHAM 210525Z 19008KT 2400 BR FEW017 05/05 Q1033 TEMPO 1400

時間: 06:48 (05:48 UTC)

予報

当レポートは29分前の05:19(UTC)に作成
予報は21日の 06時(UTC)から 22日の 12時(UTC)まで有効
南/南西の風 6kt
視程: 2500m
高度1700ftの千切れ雲あり
確率 30%
21日の 06時(UTC)から 21日の 08時(UTC)まで
視程: 1200m
高度1700ftの雲はほとんどない
21日の 08時(UTC)から 21日の 10時(UTC)まで徐々に
視程: 6000m
21日の 10時(UTC)から 21日の 13時(UTC)まで徐々に
西の風 10kt
視程10km以上
高度1800ftの雲は散在している
21日の 17時(UTC)から 21日の 20時(UTC)まで徐々に
変向風 3kt
21日の 20時(UTC)から 21日の 23時(UTC)まで徐々に
視程: 6000m
浅い霧
21日の 23時(UTC)から 22日の 02時(UTC)まで徐々に
視程: 2000m
散在霧
確率 30%
22日の 02時(UTC)から 22日の 07時(UTC)まで
視程: 0600m
高度100ftの
22日の 07時(UTC)から 22日の 09時(UTC)まで徐々に
視程: 5000m
高度500ftの雲はほとんどない
22日の 09時(UTC)から 22日の 12時(UTC)まで徐々に
南/南東の風 8kt
視程10km以上
1,500メートル以下は雲なし、積乱雲なし

TAF: EHAM 210519Z 2106/2212 20006KT 2500 BR BKN017 PROB30 2106/2108 1200 FEW017 BECMG 2108/2110 6000 NSW BECMG 2110/2113 26010KT 9999 SCT018 BECMG 2117/2120 VRB03KT BECMG 2120/2123 6000 MIFG BECMG 2123/2202 2000 BCFG PROB30 2202/2207 0600 FG VV001 BECMG 2207/2209 5000 BR FEW005 BECMG 2209/2212 15008KT CAVOK

4,000以上の空港の気象観測と天気予報(METAR報とTAF報)

利用可能な観測所は地図上に黄色い丸と赤い丸で示す。

丸の上にカーソルを重ねると観測所名を参照できる。

次にクリックすると気象観測と天気予報を参照できる。

マップの切り替え:黒色「×」印の緑ボタンをクリックして拡大、「-」印の緑ボタンをクリックして縮小、緑色の三角印をクリックして隣りの地図に切り替え


METAR-TAF: